Richfield, NY

11:26 PM EST on November 25, 2014 (GMT -0500)
upstate NY | Change Station
CLOSE
Current Station
Personal Weather Station
Location: Hartwick, NY
Elevation: 1352 ft
Nearby Weather Stations
Active Advisory: Winter Weather Advisory Active Notice: Record Report

Elev 1352 ft 42.76 °N, 75.03 °W | Updated 1 minute ago

Mostly Cloudy
Mostly Cloudy
35.1 °F
Feels Like 35 °F
N
0.0
Wind Variable Wind from WNW
Gusts 3.0 mph

Today
High -- | Low -- °F
--% Chance of Precip.
Yesterday
High -- | Low -- °F
Precip. -- in
7:04 AM 4:29 PM
Waxing Crescent, 16% visible
Pressure 30.21 in
Visibility 10.0 miles
Clouds Few 2600 ft
Overcast 3300 ft
Windchill 35 °F
Dew Point 30 °F
Humidity 82%
Rainfall 0.00 in
Snow Depth Not available.
UV 0 out of 12
Pollen .10 out of 12
Air Quality Not available.
Flu Activity Not available.
SPECI KRME 260418Z AUTO 27010KT 10SM FEW026 OVC033 03/M02 A3021 RMK AO2 T00281022

More Conditions Fewer Conditions

Pressure 30.21 in
Visibility 10.0 miles
Clouds Few 2600 ft
Overcast 3300 ft
Windchill 35 °F
Dew Point 30 °F
Humidity 82%
Rainfall 0.00 in
Snow Depth Not available.
UV 0 out of 12
Pollen .10 out of 12
Air Quality Not available.
Flu Activity Not available.
SPECI KRME 260418Z AUTO 27010KT 10SM FEW026 OVC033 03/M02 A3021 RMK AO2 T00281022

More Conditions Fewer Conditions

10-Day Weather Forecast

Almanac

Astronomy

Nov. 25, 2014 Rise Set
Actual Time
Civil Twilight
Nautical Twilight
Astronomical Twilight
Moon
Length of Visible Light
Length of Day
Tomorrow will be .
, % of the Moon is Illuminated

Today's Extremes

State Highs State Lows

Community

WunderPhotos

Upload Photos

1,773,683 photos uploaded!

WunderBlogs® & News

Nearby

Air Quality

  Air Quality AQ Index Pollutant
Not available.

Snow Depth

Station Depth Elevation

Earthquake Activity

City Distance Mag. Time & Date
Minimum magnitude displayed is 2.5.

Coastal Water Temperatures

Place Temperature

Nearby Weather Stations